createdAt,value
2023-12-04T00:01:28.604Z,-1.00
2023-12-04T00:03:56.126Z,-1.00
2023-12-04T00:06:24.556Z,-1.00
2023-12-04T00:08:52.163Z,0.10
2023-12-04T00:11:19.431Z,-1.00
2023-12-04T00:13:48.801Z,-0.90
2023-12-04T00:16:16.043Z,-1.00
2023-12-04T00:18:46.174Z,-1.10
2023-12-04T00:21:14.474Z,-1.10
2023-12-04T00:23:41.815Z,-1.00
2023-12-04T00:26:09.267Z,-0.90
2023-12-04T00:28:38.273Z,-1.00
2023-12-04T00:31:07.490Z,0.00
2023-12-04T00:33:34.825Z,-1.00
2023-12-04T00:36:03.392Z,-1.10
2023-12-04T00:38:30.522Z,-1.10
2023-12-04T00:40:57.672Z,-1.10
2023-12-04T00:43:27.383Z,-1.00
2023-12-04T00:45:56.125Z,-1.10
2023-12-04T00:48:23.415Z,-1.00
2023-12-04T00:50:52.221Z,-1.00
2023-12-04T00:53:19.649Z,-1.00
2023-12-04T00:55:46.784Z,-1.00
2023-12-04T00:58:13.992Z,-1.00
2023-12-04T01:00:41.195Z,-1.00
2023-12-04T01:03:08.882Z,-1.00
2023-12-04T01:05:36.092Z,-1.10
2023-12-04T01:08:05.495Z,-1.10
2023-12-04T01:10:35.598Z,-1.10
2023-12-04T01:13:06.432Z,-1.10
2023-12-04T01:15:34.627Z,-1.20
2023-12-04T01:18:02.050Z,-1.20
2023-12-04T01:20:29.614Z,-1.10
2023-12-04T01:22:58.428Z,-1.10
2023-12-04T01:25:25.533Z,-1.10
2023-12-04T01:27:52.738Z,-1.10
2023-12-04T01:30:19.941Z,-1.10
2023-12-04T01:32:47.115Z,-1.20
2023-12-04T01:35:14.338Z,-1.20
2023-12-04T01:37:41.999Z,-1.10
2023-12-04T01:40:10.146Z,-1.20
2023-12-04T01:42:37.475Z,-1.10
2023-12-04T01:45:09.957Z,-1.20
2023-12-04T01:47:37.226Z,-1.20
2023-12-04T01:50:05.619Z,-1.20
2023-12-04T01:52:33.165Z,-1.20
2023-12-04T01:55:00.548Z,-1.10
2023-12-04T01:57:27.967Z,-1.10
2023-12-04T01:59:55.161Z,-1.30
2023-12-04T02:02:22.485Z,-1.10
2023-12-04T02:04:49.726Z,-1.20
2023-12-04T02:07:17.075Z,-1.20
2023-12-04T02:09:44.423Z,-1.20
2023-12-04T02:12:11.775Z,-1.20
2023-12-04T02:14:39.221Z,-1.10
2023-12-04T02:17:07.944Z,-1.10
2023-12-04T02:19:35.216Z,-1.10
2023-12-04T02:22:02.553Z,-1.10
2023-12-04T02:24:32.378Z,-1.10
2023-12-04T02:27:27.709Z,-1.10
2023-12-04T02:30:00.598Z,-1.00
2023-12-04T02:32:34.972Z,-1.00
2023-12-04T02:35:05.273Z,-1.00
2023-12-04T02:37:33.895Z,-1.00
2023-12-04T02:40:02.197Z,-1.10
2023-12-04T02:42:30.001Z,-1.10
2023-12-04T02:44:57.611Z,-1.00
2023-12-04T02:47:24.950Z,-1.10
2023-12-04T02:49:52.648Z,-1.00
2023-12-04T02:52:20.069Z,-1.00
2023-12-04T02:54:47.281Z,-0.90
2023-12-04T02:57:14.546Z,-1.00
2023-12-04T02:59:41.999Z,-1.00
2023-12-04T03:02:09.443Z,-0.90
2023-12-04T03:04:36.932Z,-0.90
2023-12-04T03:07:04.430Z,-0.90
2023-12-04T03:09:47.895Z,-0.90
2023-12-04T03:12:20.254Z,-0.90
2023-12-04T03:14:47.484Z,-0.90
2023-12-04T03:17:14.726Z,-0.90
2023-12-04T03:19:41.992Z,-1.00
2023-12-04T03:22:09.416Z,-1.00
2023-12-04T03:24:36.618Z,-1.00
2023-12-04T03:27:04.256Z,-1.10
2023-12-04T03:29:31.447Z,-2.10
2023-12-04T03:31:58.837Z,-1.00
2023-12-04T03:34:26.059Z,-1.20
2023-12-04T03:36:53.289Z,-1.30
2023-12-04T03:39:20.506Z,-1.40
2023-12-04T03:41:48.758Z,-0.10
2023-12-04T03:44:15.925Z,-1.40
2023-12-04T03:46:43.175Z,-0.50
2023-12-04T03:49:10.453Z,-1.40
2023-12-04T03:51:37.731Z,-0.80
2023-12-04T03:54:04.915Z,-1.50
2023-12-04T03:56:31.999Z,-1.50
2023-12-04T03:58:59.260Z,-1.60
2023-12-04T04:01:26.413Z,-1.60
2023-12-04T04:03:53.666Z,-1.70
2023-12-04T04:06:20.895Z,-1.70
2023-12-04T04:08:48.005Z,-1.80
2023-12-04T04:11:15.263Z,-1.80
2023-12-04T04:13:42.471Z,-1.80
2023-12-04T04:16:16.989Z,-1.90
2023-12-04T04:18:44.739Z,-1.90
2023-12-04T04:21:11.976Z,-1.90
2023-12-04T04:23:39.130Z,-1.90
2023-12-04T04:26:06.878Z,-1.90
2023-12-04T04:28:34.068Z,-2.00
2023-12-04T04:31:01.246Z,-2.00
2023-12-04T04:33:28.663Z,-2.00
2023-12-04T04:35:55.857Z,-2.00
2023-12-04T04:38:23.082Z,-2.10
2023-12-04T04:40:50.227Z,-2.10
2023-12-04T04:43:17.508Z,-2.20
2023-12-04T04:45:44.721Z,-2.20
2023-12-04T04:48:12.284Z,-2.20
2023-12-04T04:50:39.403Z,-2.30
2023-12-04T04:53:06.590Z,-2.30
2023-12-04T04:55:47.094Z,-2.40
2023-12-04T04:58:17.865Z,-2.40
2023-12-04T05:00:46.589Z,-2.40
2023-12-04T05:03:13.692Z,-2.50
2023-12-04T05:05:40.868Z,-2.50
2023-12-04T05:08:08.270Z,-2.60
2023-12-04T05:10:35.438Z,-2.60
2023-12-04T05:13:02.659Z,-2.60
2023-12-04T05:15:29.922Z,-2.60
2023-12-04T05:17:57.095Z,-2.70
2023-12-04T05:20:24.421Z,-2.70
2023-12-04T05:22:51.794Z,-2.70
2023-12-04T05:25:18.991Z,-2.60
2023-12-04T05:27:48.262Z,-2.70
2023-12-04T05:30:17.069Z,-2.70
2023-12-04T05:32:44.296Z,-2.70
2023-12-04T05:35:11.546Z,-2.70
2023-12-04T05:37:38.755Z,-2.70
2023-12-04T05:40:06.988Z,-2.70
2023-12-04T05:42:34.237Z,-2.70
2023-12-04T05:45:01.909Z,-2.70
2023-12-04T05:47:29.117Z,-2.60
2023-12-04T05:49:56.413Z,-2.70
2023-12-04T05:52:23.540Z,-2.70
2023-12-04T05:54:50.703Z,-2.80
2023-12-04T05:57:17.893Z,-2.80
2023-12-04T05:59:45.174Z,-2.80
2023-12-04T06:02:12.368Z,-2.80
2023-12-04T06:04:39.926Z,-2.80
2023-12-04T06:07:07.963Z,-2.80
2023-12-04T06:09:37.835Z,-2.80
2023-12-04T06:12:09.281Z,-2.90
2023-12-04T06:14:37.437Z,-3.00
2023-12-04T06:17:06.667Z,-3.00
2023-12-04T06:19:34.117Z,-3.00
2023-12-04T06:22:01.459Z,-3.00
2023-12-04T06:24:29.273Z,-3.00
2023-12-04T06:26:56.958Z,-3.00
2023-12-04T06:29:25.785Z,-3.00
2023-12-04T06:31:53.436Z,-3.00
2023-12-04T06:34:21.523Z,-3.10
2023-12-04T06:36:48.995Z,-3.10
2023-12-04T06:39:18.420Z,-3.10
2023-12-04T06:41:49.326Z,-3.20
2023-12-04T06:44:16.826Z,-3.20
2023-12-04T06:46:51.374Z,-3.20
2023-12-04T06:49:19.898Z,-3.30
2023-12-04T06:51:47.411Z,-2.10
2023-12-04T06:54:14.786Z,-3.40
2023-12-04T06:56:41.997Z,-3.40
2023-12-04T06:59:09.403Z,-3.40
2023-12-04T07:01:36.557Z,-3.50
2023-12-04T07:04:10.799Z,-3.50
2023-12-04T07:06:39.060Z,-3.60
2023-12-04T07:09:08.538Z,-3.50
2023-12-04T07:11:35.778Z,-3.50
2023-12-04T07:14:02.914Z,-3.50
2023-12-04T07:16:30.281Z,-3.50
2023-12-04T07:18:57.470Z,-3.50
2023-12-04T07:21:25.011Z,-3.50
2023-12-04T07:23:52.219Z,-3.50
2023-12-04T07:26:19.371Z,-3.50
2023-12-04T07:28:47.038Z,-3.50
2023-12-04T07:31:14.579Z,-3.50
2023-12-04T07:33:42.074Z,-3.50
2023-12-04T07:36:10.837Z,-3.40
2023-12-04T07:38:37.963Z,-3.40
2023-12-04T07:41:05.492Z,-1.70
2023-12-04T07:43:32.814Z,-3.40
2023-12-04T07:46:00.294Z,-3.30
2023-12-04T07:48:27.634Z,-3.30
2023-12-04T07:50:55.084Z,-3.30
2023-12-04T07:53:22.389Z,-3.20
2023-12-04T07:55:52.159Z,-3.20
2023-12-04T07:58:19.694Z,-3.10
2023-12-04T08:00:47.139Z,-3.10
2023-12-04T08:03:14.488Z,-3.10
2023-12-04T08:05:41.721Z,-3.10
2023-12-04T08:08:08.997Z,-3.00
2023-12-04T08:10:36.218Z,-3.10
2023-12-04T08:13:03.424Z,-3.10
2023-12-04T08:15:30.725Z,-3.20
2023-12-04T08:17:59.148Z,-3.20
2023-12-04T08:20:33.535Z,-3.10
2023-12-04T08:23:04.360Z,-3.10
2023-12-04T08:25:31.570Z,-3.00
2023-12-04T08:28:01.269Z,-2.90
2023-12-04T08:30:28.557Z,-3.00
2023-12-04T08:32:55.908Z,-3.00
2023-12-04T08:35:24.401Z,-2.90
2023-12-04T08:37:55.892Z,-2.90
2023-12-04T08:40:23.486Z,-2.90
2023-12-04T08:42:52.089Z,-2.80
2023-12-04T08:45:20.188Z,-2.80
2023-12-04T08:47:50.013Z,-2.80
2023-12-04T08:50:17.873Z,-2.70
2023-12-04T08:52:52.592Z,-2.70
2023-12-04T08:55:20.345Z,-2.70
2023-12-04T08:57:47.670Z,-2.70
2023-12-04T09:00:15.639Z,-2.70
2023-12-04T09:02:48.999Z,-2.60
2023-12-04T09:05:17.695Z,-2.60
2023-12-04T09:10:25.624Z,-2.50
2023-12-04T09:13:02.506Z,-2.50
2023-12-04T09:15:29.928Z,-4.00
2023-12-04T09:17:57.298Z,-2.20
2023-12-04T09:20:24.758Z,-2.30
2023-12-04T09:22:55.222Z,-2.30
2023-12-04T09:25:25.154Z,-2.30
2023-12-04T09:27:52.563Z,-2.20
2023-12-04T09:30:19.997Z,-2.20
2023-12-04T09:32:47.391Z,-2.10
2023-12-04T09:35:16.275Z,-2.10
2023-12-04T09:37:43.587Z,-1.90
2023-12-04T09:40:11.721Z,-1.90
2023-12-04T09:42:40.701Z,-1.90
2023-12-04T09:45:10.582Z,-1.90
2023-12-04T09:47:38.194Z,-1.90
2023-12-04T09:50:07.162Z,-1.90
2023-12-04T09:52:36.501Z,-1.90
2023-12-04T09:55:06.709Z,-1.90
2023-12-04T09:57:36.296Z,-1.90
2023-12-04T10:00:06.110Z,-1.90
2023-12-04T10:02:39.853Z,-1.90
2023-12-04T10:05:08.726Z,-2.00
2023-12-04T10:07:37.406Z,-2.00
2023-12-04T10:10:09.208Z,-2.00
2023-12-04T10:12:37.818Z,-2.00
2023-12-04T10:15:11.112Z,-1.90
2023-12-04T10:17:41.302Z,-1.90
2023-12-04T10:20:18.427Z,-1.90
2023-12-04T10:23:02.618Z,-1.80
2023-12-04T10:25:32.140Z,-1.70
2023-12-04T10:28:14.364Z,-1.60
2023-12-04T10:30:41.631Z,-1.50
2023-12-04T10:33:10.093Z,-1.50
2023-12-04T10:35:38.397Z,-1.40
2023-12-04T10:38:06.973Z,-1.40
2023-12-04T10:40:36.657Z,-1.50
2023-12-04T10:43:21.093Z,-1.40
2023-12-04T10:45:50.094Z,-1.40
2023-12-04T10:48:19.915Z,-1.40
2023-12-04T10:50:49.684Z,-1.30
2023-12-04T10:53:18.622Z,-1.20
2023-12-04T10:55:47.110Z,-1.30
2023-12-04T10:58:16.259Z,-1.30
2023-12-04T11:00:47.192Z,-1.30
2023-12-04T11:03:29.980Z,-1.30
2023-12-04T11:06:02.696Z,-1.20
2023-12-04T11:08:37.079Z,-1.20
2023-12-04T11:11:13.034Z,-1.10
2023-12-04T11:13:43.132Z,-1.20
2023-12-04T11:16:18.470Z,-1.20
2023-12-04T11:18:53.003Z,-1.10
2023-12-04T11:21:21.978Z,-1.00
2023-12-04T11:23:49.805Z,-1.00
2023-12-04T11:26:17.532Z,-1.00
2023-12-04T11:28:45.480Z,-0.90
2023-12-04T11:31:12.893Z,-0.90
2023-12-04T11:33:40.409Z,-0.80
2023-12-04T11:36:14.318Z,-0.80
2023-12-04T11:38:50.122Z,-0.80
2023-12-04T11:41:26.272Z,-0.90
2023-12-04T11:43:57.905Z,-0.80
2023-12-04T11:46:28.027Z,-0.80
2023-12-04T11:49:29.817Z,-0.70
2023-12-04T11:52:00.933Z,-0.60
2023-12-04T11:54:30.205Z,-0.50
2023-12-04T11:57:10.566Z,-0.50
2023-12-04T11:59:41.217Z,-0.40
2023-12-04T12:02:12.119Z,-0.40
2023-12-04T12:04:40.101Z,-0.40
2023-12-04T12:07:07.788Z,-0.20
2023-12-04T12:09:35.950Z,-0.50
2023-12-04T12:12:04.276Z,-0.50
2023-12-04T12:14:34.073Z,-0.40
2023-12-04T12:17:05.287Z,-0.40
2023-12-04T12:19:32.575Z,-0.40
2023-12-04T12:21:59.918Z,-0.50
2023-12-04T12:24:27.494Z,-0.40
2023-12-04T12:27:01.531Z,-0.50
2023-12-04T12:29:28.970Z,-0.60
2023-12-04T12:31:56.483Z,-0.50
2023-12-04T12:34:24.089Z,-0.50
2023-12-04T12:36:51.317Z,-0.60
2023-12-04T12:39:18.587Z,-0.70
2023-12-04T12:41:50.521Z,-0.70
2023-12-04T12:44:18.056Z,-0.70
2023-12-04T12:46:50.521Z,-0.70
2023-12-04T12:49:29.507Z,-0.70
2023-12-04T12:52:07.362Z,-0.70
2023-12-04T12:54:35.181Z,-0.70
2023-12-04T12:57:03.618Z,-0.80
2023-12-04T12:59:31.070Z,-0.70
2023-12-04T13:02:01.579Z,-0.70
2023-12-04T13:04:41.359Z,-0.60
2023-12-04T13:07:08.707Z,-0.60
2023-12-04T13:09:40.222Z,-0.50
2023-12-04T13:12:09.359Z,-0.60
2023-12-04T13:14:37.684Z,-0.50
2023-12-04T13:17:05.750Z,-0.50
2023-12-04T13:19:35.783Z,-0.50
2023-12-04T13:22:05.484Z,-0.50
2023-12-04T13:24:33.115Z,-0.50
2023-12-04T13:27:00.411Z,-0.50
2023-12-04T13:29:27.737Z,0.20
2023-12-04T13:31:55.272Z,-0.50
2023-12-04T13:34:23.769Z,-0.60
2023-12-04T13:36:51.323Z,-0.50
2023-12-04T13:39:21.167Z,-0.50
2023-12-04T13:42:06.893Z,-0.50
2023-12-04T13:44:34.640Z,-0.40
2023-12-04T13:47:02.224Z,-0.40
2023-12-04T13:49:29.455Z,-0.40
2023-12-04T13:51:56.892Z,-0.40
2023-12-04T13:54:36.618Z,-0.30
2023-12-04T13:57:06.265Z,-0.40
2023-12-04T13:59:35.154Z,-0.50
2023-12-04T14:02:05.753Z,-0.60
2023-12-04T14:04:33.514Z,-0.50
2023-12-04T14:07:03.336Z,-0.60
2023-12-04T14:09:33.572Z,-0.60
2023-12-04T14:12:00.718Z,-0.60
2023-12-04T14:14:28.054Z,-0.60
2023-12-04T14:16:55.493Z,-0.50
2023-12-04T14:19:22.960Z,-0.50
2023-12-04T14:21:50.408Z,-0.50
2023-12-04T14:24:19.042Z,-0.40
2023-12-04T14:26:46.260Z,-0.40
2023-12-04T14:29:14.641Z,-0.40
2023-12-04T14:31:41.979Z,-0.40
2023-12-04T14:34:09.642Z,-0.40
2023-12-04T14:36:38.264Z,-0.40
2023-12-04T14:39:07.361Z,-0.40
2023-12-04T14:41:35.283Z,-0.40
2023-12-04T14:44:02.573Z,-0.40
2023-12-04T14:46:29.747Z,-0.40
2023-12-04T14:48:56.976Z,-0.40
2023-12-04T14:51:25.494Z,-0.40
2023-12-04T14:54:07.949Z,-0.40
2023-12-04T14:56:37.940Z,-0.30
2023-12-04T14:59:33.882Z,-0.30
2023-12-04T15:02:19.677Z,-0.30
2023-12-04T15:05:16.006Z,-0.30
2023-12-04T15:07:49.146Z,-0.30
2023-12-04T15:10:36.475Z,-0.30
2023-12-04T15:13:26.282Z,-0.30
2023-12-04T15:16:11.751Z,-0.30
2023-12-04T15:18:54.283Z,-0.30
2023-12-04T15:21:23.337Z,0.00
2023-12-04T15:23:50.818Z,-0.30
2023-12-04T15:26:19.099Z,-0.30
2023-12-04T15:28:48.300Z,-0.20
2023-12-04T15:31:16.937Z,-0.20
2023-12-04T15:33:44.211Z,-0.20
2023-12-04T15:36:12.171Z,-0.20
2023-12-04T15:38:39.444Z,-0.20
2023-12-04T15:41:06.813Z,-0.20
2023-12-04T15:43:34.197Z,-0.20
2023-12-04T15:46:01.900Z,-0.20
2023-12-04T15:48:29.201Z,-0.20
2023-12-04T15:50:56.540Z,-0.20
2023-12-04T15:53:23.757Z,-0.20
2023-12-04T15:55:51.331Z,-0.20
2023-12-04T15:58:18.586Z,-0.20
2023-12-04T16:00:45.883Z,-0.20
2023-12-04T16:03:13.283Z,-0.20
2023-12-04T16:05:42.171Z,-0.20
2023-12-04T16:08:09.516Z,-0.20
2023-12-04T16:10:37.412Z,-0.30
2023-12-04T16:13:05.953Z,-0.20
2023-12-04T16:15:33.480Z,-0.30
2023-12-04T16:21:57.465Z,-0.30
2023-12-04T16:24:34.570Z,1.10
2023-12-04T16:27:01.913Z,-0.40
2023-12-04T16:29:34.554Z,-0.40
2023-12-04T16:32:02.037Z,-0.40
2023-12-04T16:34:29.980Z,-0.40
2023-12-04T16:36:57.951Z,-0.50
2023-12-04T16:39:27.583Z,-0.40
2023-12-04T16:41:55.888Z,-0.50
2023-12-04T16:44:23.639Z,-0.50
2023-12-04T16:46:56.371Z,-0.60
2023-12-04T16:49:24.973Z,-0.50
2023-12-04T16:51:52.553Z,-0.50
2023-12-04T16:54:21.040Z,-0.50
2023-12-04T16:56:51.546Z,-0.50
2023-12-04T16:59:21.006Z,-0.50
2023-12-04T17:01:48.359Z,-0.50
2023-12-04T17:04:15.845Z,-0.50
2023-12-04T17:06:43.961Z,-0.50
2023-12-04T17:09:16.023Z,-0.50
2023-12-04T17:11:44.998Z,-0.40
2023-12-04T17:14:12.262Z,-0.40
2023-12-04T17:16:39.424Z,-0.40
2023-12-04T17:19:06.648Z,-0.40
2023-12-04T17:21:33.892Z,-0.40
2023-12-04T17:24:01.184Z,-0.40
2023-12-04T17:26:28.618Z,-0.40
2023-12-04T17:28:55.838Z,-0.40
2023-12-04T17:31:23.166Z,-0.30
2023-12-04T17:33:50.490Z,-0.30
2023-12-04T17:36:17.762Z,-0.40
2023-12-04T17:38:45.092Z,-0.40
2023-12-04T17:41:12.791Z,-0.40
2023-12-04T17:43:41.106Z,-0.40
2023-12-04T17:46:09.451Z,-0.40
2023-12-04T17:48:36.993Z,-0.40
2023-12-04T17:51:05.123Z,-0.30
2023-12-04T17:53:32.407Z,-0.30
2023-12-04T17:56:00.217Z,-0.30
2023-12-04T17:58:27.587Z,-0.30
2023-12-04T18:00:54.977Z,-0.30
2023-12-04T18:03:22.849Z,-0.30
2023-12-04T18:05:50.240Z,-0.30
2023-12-04T18:08:17.460Z,-0.30
2023-12-04T18:10:44.782Z,-0.40
2023-12-04T18:13:11.947Z,-0.40
2023-12-04T18:15:39.272Z,-0.40
2023-12-04T18:18:15.903Z,-0.40
2023-12-04T18:20:46.342Z,-0.40
2023-12-04T18:23:14.029Z,-0.40
2023-12-04T18:25:41.910Z,-0.40
2023-12-04T18:28:11.229Z,-0.40
2023-12-04T18:30:39.145Z,-0.40
2023-12-04T18:33:07.101Z,-0.40
2023-12-04T18:35:35.010Z,-0.40
2023-12-04T18:38:09.525Z,-0.40
2023-12-04T18:40:37.231Z,-0.50
2023-12-04T18:43:04.829Z,-0.50
2023-12-04T18:45:32.849Z,-0.60
2023-12-04T18:48:09.571Z,-0.60
2023-12-04T18:50:40.606Z,-0.60
2023-12-04T18:53:10.971Z,-0.60
2023-12-04T18:55:40.533Z,-0.60
2023-12-04T18:58:10.725Z,-0.60
2023-12-04T19:00:40.245Z,-0.60
2023-12-04T19:03:07.793Z,-0.60
2023-12-04T19:05:35.357Z,-0.60
2023-12-04T19:08:03.425Z,-0.60
2023-12-04T19:10:30.942Z,-0.70
2023-12-04T19:12:58.489Z,-0.80
2023-12-04T19:15:26.857Z,-0.80
2023-12-04T19:17:54.260Z,-0.80
2023-12-04T19:20:22.288Z,-0.80
2023-12-04T19:22:50.311Z,-0.90
2023-12-04T19:25:20.098Z,-0.90
2023-12-04T19:27:51.313Z,-0.90
2023-12-04T19:30:18.647Z,-0.90
2023-12-04T19:32:49.047Z,-0.90
2023-12-04T19:35:19.298Z,-0.90
2023-12-04T19:37:46.533Z,-0.90
2023-12-04T19:40:15.103Z,-0.90
2023-12-04T19:42:42.912Z,-0.80
2023-12-04T19:45:13.528Z,-0.80
2023-12-04T19:47:41.077Z,-0.80
2023-12-04T19:50:12.612Z,-0.80
2023-12-04T19:52:40.447Z,-0.80
2023-12-04T19:55:08.036Z,-0.80
2023-12-04T19:57:39.283Z,-0.80
2023-12-04T20:00:09.437Z,-0.80
2023-12-04T20:02:41.921Z,-0.80
2023-12-04T20:05:13.800Z,-0.70
2023-12-04T20:07:47.630Z,-0.70
2023-12-04T20:10:45.805Z,-0.70
2023-12-04T20:13:15.099Z,-0.60
2023-12-04T20:15:42.488Z,-0.70
2023-12-04T20:18:10.210Z,-0.70
2023-12-04T20:20:37.742Z,-0.60
2023-12-04T20:23:09.930Z,-0.60
2023-12-04T20:25:38.718Z,-0.60
2023-12-04T20:28:06.429Z,-0.60
2023-12-04T20:30:36.288Z,-0.60
2023-12-04T20:33:04.213Z,-0.60
2023-12-04T20:35:36.344Z,-0.60
2023-12-04T20:41:47.722Z,-0.60
2023-12-04T20:44:15.318Z,-0.60
2023-12-04T20:46:45.704Z,-0.60
2023-12-04T20:49:15.627Z,-0.70
2023-12-04T20:51:43.632Z,-0.60
2023-12-04T21:19:10.676Z,-0.50
2023-12-04T21:21:41.708Z,1.60
2023-12-04T21:24:08.918Z,1.70
2023-12-04T21:26:38.071Z,-0.80
2023-12-04T21:29:08.339Z,-0.70
2023-12-04T21:31:35.724Z,-0.70
2023-12-04T21:34:08.057Z,-0.80
2023-12-04T21:36:38.411Z,-0.70
2023-12-04T21:39:06.786Z,-0.70
2023-12-04T21:41:34.368Z,-0.70
2023-12-04T21:44:01.659Z,-0.70
2023-12-04T21:46:29.013Z,-0.70
2023-12-04T21:49:00.330Z,-0.70
2023-12-04T21:51:31.587Z,-0.80
2023-12-04T21:54:02.143Z,-0.80
2023-12-04T21:56:29.570Z,-0.80
2023-12-04T21:58:56.811Z,-0.80
2023-12-04T22:01:27.342Z,-0.80
2023-12-04T22:03:57.982Z,-0.90
2023-12-04T22:06:26.200Z,-0.90
2023-12-04T22:08:54.598Z,-0.90
2023-12-04T22:11:22.021Z,-0.90
2023-12-04T22:13:51.781Z,-0.90
2023-12-04T22:16:18.923Z,-0.90
2023-12-04T22:18:46.319Z,-1.00
2023-12-04T22:21:16.672Z,-1.00
2023-12-04T22:23:44.412Z,-1.00
2023-12-04T22:26:17.183Z,-1.00
2023-12-04T22:28:47.634Z,-1.00
2023-12-04T22:31:14.800Z,-1.00
2023-12-04T22:33:46.061Z,-1.00
2023-12-04T22:36:13.594Z,-1.00
2023-12-04T22:38:42.173Z,-1.00
2023-12-04T22:41:12.534Z,-1.00
2023-12-04T22:43:41.538Z,-1.00
2023-12-04T22:46:10.173Z,-1.10
2023-12-04T22:48:38.757Z,-1.10
2023-12-04T22:51:07.365Z,-1.10
2023-12-04T22:53:37.421Z,-1.10
2023-12-04T22:56:06.561Z,-1.10
2023-12-04T22:58:34.491Z,-1.10
2023-12-04T23:01:04.220Z,-1.10
2023-12-04T23:03:31.519Z,-1.20
2023-12-04T23:05:58.796Z,-1.10
2023-12-04T23:08:26.048Z,-1.20
2023-12-04T23:10:53.197Z,-1.20
2023-12-04T23:13:23.635Z,-1.20
2023-12-04T23:15:52.312Z,-0.70
2023-12-04T23:18:19.883Z,-1.20
2023-12-04T23:20:49.807Z,-1.20
2023-12-04T23:23:17.264Z,-1.20
2023-12-04T23:25:48.289Z,-1.20
2023-12-04T23:28:16.873Z,-1.30
2023-12-04T23:30:44.384Z,-1.30
2023-12-04T23:33:22.497Z,-1.30
2023-12-04T23:35:55.700Z,-1.30
2023-12-04T23:38:22.884Z,-1.40
2023-12-04T23:40:53.560Z,-1.40
2023-12-04T23:43:22.627Z,-1.50
2023-12-04T23:45:56.149Z,-1.40
2023-12-04T23:48:24.952Z,-1.50
2023-12-04T23:50:52.442Z,-1.50
2023-12-04T23:53:19.976Z,-1.60
2023-12-04T23:55:47.132Z,-1.50
2023-12-04T23:58:15.158Z,-1.40
